Time;durP1;ratioP1;P1;durP2;ratioP2;P2;SDS_P1;SDS_P2;PMS_P1;PMS_P2;Temp;Humidity;BMP_temperature;BMP_pressure;BME280_temperature;BME280_humidity;BME280_pressure;Samples;Min_cycle;Max_cycle;Signal;HPM_P1;HPM_P2
2021/03/26 00:02:17;;;;;;;23.05;8.98;;;;;;;;;;5032581;28;20040;-54
2021/03/26 00:04:43;;;;;;;34.88;12.23;;;;;;;;;;5031998;28;20038;-54
2021/03/26 00:07:09;;;;;;;35.75;12.77;;;;;;;;;;5032120;28;20025;-54
2021/03/26 00:09:36;;;;;;;29.65;11.00;;;;;;;;;;5035226;28;20029;-54
2021/03/26 00:12:06;;;;;;;26.40;10.55;;;;;;;;;;5036035;28;20410;-54
2021/03/26 00:14:32;;;;;;;31.50;11.57;;;;;;;;;;5035801;28;20032;-54
2021/03/26 00:16:58;;;;;;;21.00;9.98;;;;;;;;;;5035629;28;20025;-54
2021/03/26 00:19:24;;;;;;;18.45;8.15;;;;;;;;;;5035500;28;20467;-54
2021/03/26 00:21:50;;;;;;;23.27;7.30;;;;;;;;;;5035632;28;20022;-54
2021/03/26 00:24:16;;;;;;;26.10;8.05;;;;;;;;;;5035625;28;20033;-54
2021/03/26 00:26:42;;;;;;;16.17;8.00;;;;;;;;;;5034302;28;20052;-54
2021/03/26 00:29:11;;;;;;;16.27;6.78;;;;;;;;;;5035385;28;20061;-54
2021/03/26 00:31:38;;;;;;;17.35;7.15;;;;;;;;;;5035357;28;20108;-54
2021/03/26 00:34:05;;;;;;;17.90;6.90;;;;;;;;;;5035381;28;20429;-53
2021/03/26 00:36:31;;;;;;;15.93;6.15;;;;;;;;;;5035371;28;20025;-54
2021/03/26 00:38:57;;;;;;;20.95;7.57;;;;;;;;;;5035269;28;20075;-54
2021/03/26 00:41:23;;;;;;;16.23;6.85;;;;;;;;;;5035515;28;20040;-54
2021/03/26 00:43:49;;;;;;;15.57;6.72;;;;;;;;;;5035341;28;20029;-54
2021/03/26 00:46:15;;;;;;;16.70;7.32;;;;;;;;;;5035083;28;20030;-54
2021/03/26 00:48:42;;;;;;;16.17;7.38;;;;;;;;;;5034822;28;20021;-54
2021/03/26 00:51:08;;;;;;;14.30;6.80;;;;;;;;;;5035166;28;20044;-54
2021/03/26 00:53:35;;;;;;;17.92;6.85;;;;;;;;;;5035425;28;20029;-54
2021/03/26 00:56:01;;;;;;;18.10;6.97;;;;;;;;;;5035455;28;20036;-54
2021/03/26 00:58:27;;;;;;;15.32;6.63;;;;;;;;;;5034856;28;20431;-54
2021/03/26 01:00:54;;;;;;;14.35;6.82;;;;;;;;;;5034750;28;20116;-54
2021/03/26 01:03:21;;;;;;;16.42;7.53;;;;;;;;;;5043488;28;20362;-54
2021/03/26 01:05:49;;;;;;;16.52;7.32;;;;;;;;;;5054504;28;20041;-54
2021/03/26 01:08:15;;;;;;;20.67;7.43;;;;;;;;;;5054627;28;20029;-54
2021/03/26 01:10:43;;;;;;;21.38;8.32;;;;;;;;;;5054654;28;20381;-54
2021/03/26 01:13:10;;;;;;;14.05;6.78;;;;;;;;;;5054697;28;20029;-54
2021/03/26 01:15:36;;;;;;;14.70;7.47;;;;;;;;;;5054978;28;20383;-54
2021/03/26 01:18:05;;;;;;;14.38;7.25;;;;;;;;;;5054256;28;20078;-54
2021/03/26 01:20:33;;;;;;;11.55;6.50;;;;;;;;;;5054683;28;20075;-54
2021/03/26 01:22:59;;;;;;;20.25;6.65;;;;;;;;;;5043546;28;20108;-54
2021/03/26 01:25:32;;;;;;;20.27;7.45;;;;;;;;;;5035033;28;20112;-54
2021/03/26 01:27:58;;;;;;;15.73;6.60;;;;;;;;;;5033794;28;20029;-53
2021/03/26 01:30:24;;;;;;;14.98;7.43;;;;;;;;;;5034546;28;20026;-53
2021/03/26 01:32:51;;;;;;;20.35;7.00;;;;;;;;;;5042764;28;20029;-54
2021/03/26 01:35:18;;;;;;;18.40;6.78;;;;;;;;;;5054352;28;20053;-54
2021/03/26 01:37:44;;;;;;;17.35;6.78;;;;;;;;;;5053846;28;20079;-54
2021/03/26 01:40:12;;;;;;;13.25;6.03;;;;;;;;;;5054382;28;20060;-54
2021/03/26 01:42:38;;;;;;;17.30;7.88;;;;;;;;;;5053673;28;20488;-54
2021/03/26 01:45:15;;;;;;;11.68;6.80;;;;;;;;;;5053868;28;20083;-54
2021/03/26 01:47:41;;;;;;;15.07;6.63;;;;;;;;;;5053773;28;20021;-54
2021/03/26 01:50:11;;;;;;;13.05;6.13;;;;;;;;;;5053611;28;20454;-54
2021/03/26 01:52:37;;;;;;;14.35;7.22;;;;;;;;;;5053886;28;20048;-53
2021/03/26 01:55:04;;;;;;;15.95;6.80;;;;;;;;;;5053646;28;20029;-54
2021/03/26 01:57:30;;;;;;;14.93;7.18;;;;;;;;;;5053459;28;20118;-54
2021/03/26 01:59:56;;;;;;;17.27;7.65;;;;;;;;;;5053848;28;20059;-54
2021/03/26 02:02:24;;;;;;;16.65;6.40;;;;;;;;;;5053770;28;20355;-54
2021/03/26 02:04:50;;;;;;;15.07;6.95;;;;;;;;;;5053618;28;20072;-54
2021/03/26 02:07:17;;;;;;;22.45;7.05;;;;;;;;;;5053283;28;20272;-54
2021/03/26 02:09:44;;;;;;;12.85;7.07;;;;;;;;;;5053451;28;20033;-54
2021/03/26 02:12:19;;;;;;;20.85;6.60;;;;;;;;;;5053398;28;20439;-54
2021/03/26 02:14:50;;;;;;;12.60;6.55;;;;;;;;;;5053724;28;20037;-54
2021/03/26 02:17:17;;;;;;;16.42;7.20;;;;;;;;;;5053138;28;20028;-54
2021/03/26 02:19:47;;;;;;;14.13;5.53;;;;;;;;;;5053512;28;20025;-54
2021/03/26 02:22:14;;;;;;;16.45;6.70;;;;;;;;;;5048456;28;20021;-53
2021/03/26 02:24:41;;;;;;;17.25;5.95;;;;;;;;;;5033418;28;20033;-54
2021/03/26 02:27:09;;;;;;;12.80;6.45;;;;;;;;;;5032114;28;20321;-54
2021/03/26 02:29:36;;;;;;;17.00;7.10;;;;;;;;;;5033418;28;20065;-53
2021/03/26 02:32:07;;;;;;;13.00;6.65;;;;;;;;;;5033449;28;20025;-54
2021/03/26 02:34:33;;;;;;;16.25;6.72;;;;;;;;;;5033058;28;20459;-54
2021/03/26 02:37:11;;;;;;;15.10;6.43;;;;;;;;;;5032937;28;20072;-54
2021/03/26 02:39:43;;;;;;;12.98;6.90;;;;;;;;;;5033242;28;20017;-54
2021/03/26 02:42:20;;;;;;;18.13;6.85;;;;;;;;;;5033490;28;20108;-54
2021/03/26 02:44:46;;;;;;;14.75;6.53;;;;;;;;;;5032999;28;20036;-54
2021/03/26 02:47:19;;;;;;;16.67;6.63;;;;;;;;;;5048181;28;20418;-54
2021/03/26 02:49:49;;;;;;;15.50;6.97;;;;;;;;;;5051869;28;20009;-54
2021/03/26 02:52:15;;;;;;;12.90;6.72;;;;;;;;;;5053115;28;20446;-55
2021/03/26 02:54:48;;;;;;;14.02;6.97;;;;;;;;;;5052942;28;20021;-54
2021/03/26 02:57:17;;;;;;;13.55;7.13;;;;;;;;;;5052787;28;20075;-54
2021/03/26 02:59:43;;;;;;;14.60;6.30;;;;;;;;;;5051416;28;20032;-55
2021/03/26 03:02:11;;;;;;;15.27;6.35;;;;;;;;;;5052756;28;20036;-55
2021/03/26 03:04:41;;;;;;;18.67;7.40;;;;;;;;;;5052763;28;20037;-55
2021/03/26 03:07:16;;;;;;;13.68;6.25;;;;;;;;;;5052638;28;20104;-54
2021/03/26 03:09:43;;;;;;;12.73;6.25;;;;;;;;;;5052897;28;20091;-54
2021/03/26 03:12:21;;;;;;;14.15;6.50;;;;;;;;;;5052645;28;20434;-55
2021/03/26 03:14:52;;;;;;;20.20;7.13;;;;;;;;;;5052628;28;20021;-55
2021/03/26 03:17:22;;;;;;;15.45;6.88;;;;;;;;;;5052758;28;20033;-55
2021/03/26 03:19:51;;;;;;;10.60;5.50;;;;;;;;;;5051986;28;20336;-55
2021/03/26 03:22:20;;;;;;;17.92;6.50;;;;;;;;;;5046532;28;20053;-55
2021/03/26 03:24:47;;;;;;;15.30;5.80;;;;;;;;;;5050307;28;20045;-55
2021/03/26 03:27:13;;;;;;;11.77;5.47;;;;;;;;;;5052529;28;20017;-54
2021/03/26 03:29:41;;;;;;;13.70;5.28;;;;;;;;;;5052563;28;20036;-54
2021/03/26 03:32:07;;;;;;;16.13;5.85;;;;;;;;;;5052763;28;20021;-55
2021/03/26 03:34:38;;;;;;;12.90;6.22;;;;;;;;;;5052596;28;20028;-55
2021/03/26 03:37:20;;;;;;;19.08;7.20;;;;;;;;;;5052740;28;20029;-55
2021/03/26 03:39:58;;;;;;;15.98;6.97;;;;;;;;;;5052606;28;20159;-55
2021/03/26 03:42:38;;;;;;;22.90;7.72;;;;;;;;;;5052656;28;20370;-55
2021/03/26 03:45:07;;;;;;;15.80;7.05;;;;;;;;;;5056059;28;20052;-55
2021/03/26 03:47:47;;;;;;;15.02;7.45;;;;;;;;;;5055863;28;20074;-55
2021/03/26 03:50:17;;;;;;;14.27;7.05;;;;;;;;;;5056348;28;20082;-55
2021/03/26 03:52:51;;;;;;;18.48;7.00;;;;;;;;;;5051371;28;20071;-55
2021/03/26 03:55:43;;;;;;;20.13;6.88;;;;;;;;;;5056122;28;20029;-55
2021/03/26 03:58:09;;;;;;;19.02;7.65;;;;;;;;;;5044102;28;20158;-55
2021/03/26 04:00:37;;;;;;;14.18;6.95;;;;;;;;;;5055682;28;20116;-55
2021/03/26 04:03:08;;;;;;;13.13;7.20;;;;;;;;;;5056196;28;20063;-55
2021/03/26 04:05:36;;;;;;;20.40;6.88;;;;;;;;;;5056173;28;20032;-54
2021/03/26 04:08:09;;;;;;;14.82;7.85;;;;;;;;;;5055578;28;20021;-55
2021/03/26 04:10:38;;;;;;;14.35;6.78;;;;;;;;;;5056142;28;20021;-54
2021/03/26 04:13:23;;;;;;;17.35;7.03;;;;;;;;;;5055580;28;20033;-55
2021/03/26 04:15:52;;;;;;;16.38;7.25;;;;;;;;;;5055810;28;20040;-55
2021/03/26 04:18:37;;;;;;;17.52;7.25;;;;;;;;;;5055564;28;20029;-55
2021/03/26 04:21:08;;;;;;;16.65;6.97;;;;;;;;;;5055380;28;20044;-55
2021/03/26 04:23:41;;;;;;;18.48;7.40;;;;;;;;;;5039300;28;20483;-55
2021/03/26 04:26:20;;;;;;;16.02;7.13;;;;;;;;;;5035924;28;20116;-55
2021/03/26 04:28:49;;;;;;;22.58;6.35;;;;;;;;;;5035262;28;20029;-55
2021/03/26 04:31:18;;;;;;;16.42;7.18;;;;;;;;;;5055354;28;20025;-54
2021/03/26 04:33:44;;;;;;;13.50;6.15;;;;;;;;;;5055215;28;20041;-55
2021/03/26 04:36:14;;;;;;;14.13;6.05;;;;;;;;;;5055354;28;20033;-54
2021/03/26 04:38:40;;;;;;;15.93;6.00;;;;;;;;;;5054866;28;20487;-55
2021/03/26 04:41:17;;;;;;;13.40;6.18;;;;;;;;;;5055581;28;20120;-55
2021/03/26 04:43:47;;;;;;;15.57;7.05;;;;;;;;;;5055243;28;20037;-55
2021/03/26 04:46:22;;;;;;;18.00;7.00;;;;;;;;;;5055506;28;20560;-55
2021/03/26 04:49:18;;;;;;;15.65;7.28;;;;;;;;;;5054945;28;20032;-55
2021/03/26 04:52:01;;;;;;;17.90;7.45;;;;;;;;;;5054459;28;20474;-55
2021/03/26 04:54:31;;;;;;;20.00;8.68;;;;;;;;;;5054584;28;20459;-55
2021/03/26 04:57:10;;;;;;;18.25;8.13;;;;;;;;;;5054651;28;20475;-54
2021/03/26 04:59:55;;;;;;;16.88;7.07;;;;;;;;;;5054922;28;20036;-55
2021/03/26 05:02:22;;;;;;;23.38;8.10;;;;;;;;;;5054964;28;20032;-55
2021/03/26 05:04:50;;;;;;;18.23;8.00;;;;;;;;;;5053124;28;20063;-55
2021/03/26 05:07:22;;;;;;;16.17;7.45;;;;;;;;;;5053985;28;20070;-55
2021/03/26 05:09:50;;;;;;;18.13;8.02;;;;;;;;;;5055023;28;20025;-54
2021/03/26 05:12:25;;;;;;;17.17;7.43;;;;;;;;;;5054765;28;20458;-55
2021/03/26 05:14:54;;;;;;;15.20;7.53;;;;;;;;;;5054797;28;20029;-54
2021/03/26 05:17:29;;;;;;;18.02;7.38;;;;;;;;;;5054371;28;20423;-55
2021/03/26 05:19:54;;;;;;;26.33;7.95;;;;;;;;;;5054686;28;20025;-55
2021/03/26 05:22:20;;;;;;;17.25;7.72;;;;;;;;;;5049049;28;20044;-55
2021/03/26 05:25:00;;;;;;;21.05;7.22;;;;;;;;;;5034601;28;20033;-55
2021/03/26 05:27:26;;;;;;;22.92;7.38;;;;;;;;;;5034762;28;20022;-54
2021/03/26 05:29:52;;;;;;;16.83;6.18;;;;;;;;;;5034338;28;20071;-55
2021/03/26 05:32:18;;;;;;;13.38;5.97;;;;;;;;;;5034315;28;20021;-55
2021/03/26 05:34:44;;;;;;;16.10;7.47;;;;;;;;;;5034296;28;20116;-55
2021/03/26 05:37:16;;;;;;;12.52;6.25;;;;;;;;;;5034118;28;20022;-55
2021/03/26 05:39:43;;;;;;;17.60;6.68;;;;;;;;;;5047034;28;20025;-55
2021/03/26 05:42:17;;;;;;;17.40;6.38;;;;;;;;;;5054170;28;20024;-55
2021/03/26 05:45:02;;;;;;;17.83;7.20;;;;;;;;;;5053065;28;20138;-54
2021/03/26 05:47:41;;;;;;;21.98;7.18;;;;;;;;;;5053610;28;20025;-54
2021/03/26 05:50:25;;;;;;;14.75;6.97;;;;;;;;;;5054120;28;20370;-55
2021/03/26 05:53:09;;;;;;;18.10;7.47;;;;;;;;;;5054063;28;20357;-55
2021/03/26 05:55:35;;;;;;;16.17;7.00;;;;;;;;;;5053815;28;20052;-55
2021/03/26 05:58:10;;;;;;;19.92;8.20;;;;;;;;;;5053507;28;20048;-55
2021/03/26 06:00:54;;;;;;;20.10;7.75;;;;;;;;;;5053929;28;20032;-55
2021/03/26 06:03:36;;;;;;;20.25;6.97;;;;;;;;;;5053701;28;20021;-55
2021/03/26 06:06:20;;;;;;;14.77;6.63;;;;;;;;;;5046745;28;20403;-55
2021/03/26 06:09:01;;;;;;;14.15;6.28;;;;;;;;;;5051648;28;20025;-55
2021/03/26 06:11:33;;;;;;;17.90;7.03;;;;;;;;;;5052895;28;20063;-55
2021/03/26 06:14:08;;;;;;;12.95;6.32;;;;;;;;;;5053064;28;20025;-55
2021/03/26 06:16:43;;;;;;;15.32;6.53;;;;;;;;;;5053707;28;20164;-54
2021/03/26 06:19:28;;;;;;;24.17;10.10;;;;;;;;;;5053318;28;20282;-55
2021/03/26 06:22:00;;;;;;;21.98;8.75;;;;;;;;;;5044318;28;20364;-55
2021/03/26 06:24:41;;;;;;;23.83;8.57;;;;;;;;;;5048377;28;20025;-55
2021/03/26 06:27:11;;;;;;;36.28;14.55;;;;;;;;;;5052868;28;20455;-55
2021/03/26 06:29:40;;;;;;;21.90;10.00;;;;;;;;;;5052152;28;20067;-55
2021/03/26 06:32:06;;;;;;;20.20;8.23;;;;;;;;;;5053380;28;20117;-55
2021/03/26 06:34:43;;;;;;;19.35;8.18;;;;;;;;;;5053138;28;20057;-55
2021/03/26 06:37:28;;;;;;;28.15;8.48;;;;;;;;;;5053106;28;20035;-55
2021/03/26 06:40:13;;;;;;;23.13;9.30;;;;;;;;;;5053079;28;20028;-55
2021/03/26 06:42:57;;;;;;;19.40;9.25;;;;;;;;;;5052950;28;20462;-55
2021/03/26 06:45:23;;;;;;;19.67;8.55;;;;;;;;;;5052927;28;20041;-54
2021/03/26 06:47:58;;;;;;;16.02;6.97;;;;;;;;;;5052755;28;20032;-55
2021/03/26 06:50:39;;;;;;;13.77;6.68;;;;;;;;;;5053015;28;20473;-54
2021/03/26 06:53:10;;;;;;;20.95;7.55;;;;;;;;;;5053147;28;20028;-55
2021/03/26 06:55:43;;;;;;;16.73;6.85;;;;;;;;;;5052690;28;20029;-55
2021/03/26 06:58:15;;;;;;;18.25;7.55;;;;;;;;;;5051345;28;20060;-55
2021/03/26 07:01:07;;;;;;;16.98;7.88;;;;;;;;;;5052772;28;20405;-54
2021/03/26 07:03:43;;;;;;;18.25;7.85;;;;;;;;;;5052184;28;20040;-55
2021/03/26 07:06:15;;;;;;;22.65;8.25;;;;;;;;;;5052612;28;20051;-54
2021/03/26 07:08:48;;;;;;;15.63;7.38;;;;;;;;;;5052864;28;20104;-55
2021/03/26 07:11:26;;;;;;;17.35;8.15;;;;;;;;;;5052891;28;20036;-54
2021/03/26 07:14:11;;;;;;;20.33;8.82;;;;;;;;;;5053042;28;20025;-55
2021/03/26 07:16:37;;;;;;;23.17;9.73;;;;;;;;;;5052420;28;20048;-54
2021/03/26 07:19:22;;;;;;;21.02;7.95;;;;;;;;;;5056684;28;20024;-55
2021/03/26 07:21:48;;;;;;;22.58;9.70;;;;;;;;;;5053781;28;20021;-55
2021/03/26 07:24:36;;;;;;;29.38;10.77;;;;;;;;;;5050508;28;20029;-55
2021/03/26 07:27:21;;;;;;;28.17;8.52;;;;;;;;;;5056127;28;20033;-54
2021/03/26 07:30:06;;;;;;;29.08;10.93;;;;;;;;;;5056667;28;20025;-54
2021/03/26 07:32:41;;;;;;;26.67;10.55;;;;;;;;;;5056723;28;20400;-55
2021/03/26 07:35:07;;;;;;;27.88;12.20;;;;;;;;;;5056172;28;20029;-55
2021/03/26 07:37:51;;;;;;;35.20;12.38;;;;;;;;;;5056311;28;20587;-55
2021/03/26 07:40:26;;;;;;;23.10;10.73;;;;;;;;;;5056418;28;20079;-55
2021/03/26 07:42:52;;;;;;;30.17;10.90;;;;;;;;;;5056431;28;20112;-55
2021/03/26 07:45:18;;;;;;;24.15;11.10;;;;;;;;;;5056533;28;20116;-55
2021/03/26 07:47:59;;;;;;;26.33;10.27;;;;;;;;;;5052358;28;20045;-55
2021/03/26 07:50:31;;;;;;;31.77;9.10;;;;;;;;;;5036509;28;20029;-54
2021/03/26 07:53:00;;;;;;;21.02;8.45;;;;;;;;;;5052139;28;20036;-55
2021/03/26 07:55:39;;;;;;;26.63;11.23;;;;;;;;;;5041189;28;20026;-55
2021/03/26 07:58:23;;;;;;;17.25;8.82;;;;;;;;;;5035405;28;20060;-55
2021/03/26 08:00:52;;;;;;;24.98;11.02;;;;;;;;;;5054956;28;20064;-55
2021/03/26 08:03:48;;;;;;;26.67;10.52;;;;;;;;;;5055621;28;20112;-55
2021/03/26 08:06:17;;;;;;;23.23;9.27;;;;;;;;;;5052365;28;20048;-54
2021/03/26 08:08:43;;;;;;;40.40;14.23;;;;;;;;;;5035972;28;20034;-54
2021/03/26 08:11:17;;;;;;;28.40;11.35;;;;;;;;;;5039121;28;20039;-54
2021/03/26 08:14:00;;;;;;;33.97;14.45;;;;;;;;;;5045724;28;20113;-54
2021/03/26 08:16:44;;;;;;;14.75;7.57;;;;;;;;;;5045777;28;20025;-55
2021/03/26 08:19:13;;;;;;;22.73;9.00;;;;;;;;;;5042810;28;20040;-55
2021/03/26 08:21:42;;;;;;;28.02;12.70;;;;;;;;;;5050006;28;20025;-55
2021/03/26 08:24:27;;;;;;;25.20;12.25;;;;;;;;;;5054359;28;20028;-55
2021/03/26 08:27:11;;;;;;;45.33;17.35;;;;;;;;;;5054881;28;20443;-54
2021/03/26 08:29:42;;;;;;;23.17;8.63;;;;;;;;;;5037567;28;20073;-54
2021/03/26 08:32:24;;;;;;;46.00;19.60;;;;;;;;;;5041863;28;20033;-55
2021/03/26 08:34:56;;;;;;;54.45;20.48;;;;;;;;;;5045926;28;20028;-55
2021/03/26 08:37:22;;;;;;;30.42;12.32;;;;;;;;;;5048660;28;20017;-55
2021/03/26 08:39:49;;;;;;;56.42;21.77;;;;;;;;;;5052589;28;20013;-55
2021/03/26 08:42:35;;;;;;;24.92;9.18;;;;;;;;;;5045543;28;20442;-54
2021/03/26 08:45:10;;;;;;;26.13;9.63;;;;;;;;;;5039580;28;20044;-54
2021/03/26 08:47:42;;;;;;;34.78;12.73;;;;;;;;;;5051083;28;20032;-54
2021/03/26 08:50:24;;;;;;;22.73;10.07;;;;;;;;;;5053194;28;20025;-55
2021/03/26 08:53:05;;;;;;;37.17;13.02;;;;;;;;;;5049094;28;20017;-55
2021/03/26 08:55:34;;;;;;;17.98;3.42;;;;;;;;;;5048426;28;20043;-55
2021/03/26 08:58:19;;;;;;;30.98;10.50;;;;;;;;;;5047953;28;20044;-54
2021/03/26 09:00:45;;;;;;;23.08;9.70;;;;;;;;;;5052510;28;20037;-55
2021/03/26 09:03:24;;;;;;;15.02;6.30;;;;;;;;;;5048397;28;20037;-54
2021/03/26 09:06:08;;;;;;;12.82;4.75;;;;;;;;;;5035023;28;20041;-54
2021/03/26 09:08:43;;;;;;;21.55;8.13;;;;;;;;;;5034532;28;20060;-55
2021/03/26 09:11:18;;;;;;;21.58;9.32;;;;;;;;;;5047883;28;20032;-55
2021/03/26 09:13:56;;;;;;;16.40;6.93;;;;;;;;;;5048458;28;20025;-55
2021/03/26 09:16:40;;;;;;;28.67;11.63;;;;;;;;;;5034661;28;20031;-55
2021/03/26 09:19:18;;;;;;;13.73;6.13;;;;;;;;;;5034500;28;20116;-55
2021/03/26 09:21:47;;;;;;;10.32;5.05;;;;;;;;;;5034734;28;20029;-54
2021/03/26 09:24:22;;;;;;;16.70;7.53;;;;;;;;;;5038571;28;20021;-54
2021/03/26 09:26:52;;;;;;;18.92;6.05;;;;;;;;;;5054572;28;20398;-54
2021/03/26 09:29:24;;;;;;;23.00;7.18;;;;;;;;;;5040343;28;20021;-55
2021/03/26 09:31:56;;;;;;;25.02;8.25;;;;;;;;;;5034123;28;20025;-55
2021/03/26 09:34:30;;;;;;;21.85;7.07;;;;;;;;;;5048690;28;20076;-54
2021/03/26 09:37:06;;;;;;;5.97;2.42;;;;;;;;;;5044761;28;20044;-54
2021/03/26 09:39:34;;;;;;;26.23;12.48;;;;;;;;;;5052624;28;20064;-54
2021/03/26 09:42:11;;;;;;;17.05;7.95;;;;;;;;;;5054392;28;20397;-54
2021/03/26 09:44:57;;;;;;;18.52;6.50;;;;;;;;;;5052550;28;20029;-55
2021/03/26 09:47:38;;;;;;;19.52;7.35;;;;;;;;;;5046438;28;20028;-55
2021/03/26 09:50:07;;;;;;;8.45;4.15;;;;;;;;;;5042781;28;20159;-54
2021/03/26 09:52:44;;;;;;;12.50;5.97;;;;;;;;;;5050108;28;20064;-54
2021/03/26 09:55:11;;;;;;;10.13;6.32;;;;;;;;;;5053981;28;20461;-54
2021/03/26 09:57:45;;;;;;;8.05;4.07;;;;;;;;;;5037220;28;20034;-54
2021/03/26 10:00:40;;;;;;;20.33;7.15;;;;;;;;;;5034045;28;20033;-54
2021/03/26 10:03:11;;;;;;;3.72;2.38;;;;;;;;;;5033599;28;20052;-54
2021/03/26 10:05:44;;;;;;;19.17;7.15;;;;;;;;;;5034694;28;20038;-55
2021/03/26 10:08:39;;;;;;;12.25;5.57;;;;;;;;;;5033546;28;20030;-54
2021/03/26 10:11:10;;;;;;;11.20;5.00;;;;;;;;;;5033353;28;20025;-54
2021/03/26 10:13:45;;;;;;;11.80;4.75;;;;;;;;;;5033388;28;20047;-54
2021/03/26 10:16:13;;;;;;;13.73;5.47;;;;;;;;;;5044985;28;20108;-54
2021/03/26 10:18:58;;;;;;;15.57;5.65;;;;;;;;;;5042305;28;20030;-55
2021/03/26 10:21:25;;;;;;;12.43;5.18;;;;;;;;;;5052563;28;20029;-54
2021/03/26 10:24:06;;;;;;;8.95;4.95;;;;;;;;;;5039010;28;20024;-54
2021/03/26 10:26:39;;;;;;;12.52;4.57;;;;;;;;;;5052334;28;20033;-54
2021/03/26 10:29:12;;;;;;;14.27;6.60;;;;;;;;;;5052362;28;20541;-55
2021/03/26 10:31:39;;;;;;;6.70;1.83;;;;;;;;;;5053010;28;20025;-55
2021/03/26 10:34:06;;;;;;;7.47;3.05;;;;;;;;;;5052617;28;20083;-54
2021/03/26 10:36:44;;;;;;;14.05;6.70;;;;;;;;;;5047775;28;20112;-55
2021/03/26 10:39:13;;;;;;;8.98;4.45;;;;;;;;;;5043397;28;20052;-55
2021/03/26 10:41:50;;;;;;;12.80;5.03;;;;;;;;;;5045003;28;20025;-55
2021/03/26 10:44:23;;;;;;;11.65;4.63;;;;;;;;;;5045426;28;20533;-55
2021/03/26 10:47:07;;;;;;;2.92;1.52;;;;;;;;;;5041019;28;20042;-55
2021/03/26 10:49:37;;;;;;;6.07;2.15;;;;;;;;;;5042063;28;20026;-55
2021/03/26 10:52:07;;;;;;;7.25;3.22;;;;;;;;;;5041137;28;20025;-55
2021/03/26 10:54:35;;;;;;;16.10;6.20;;;;;;;;;;5036012;28;20053;-55
2021/03/26 10:57:02;;;;;;;9.30;3.50;;;;;;;;;;5033519;28;20040;-55
2021/03/26 10:59:32;;;;;;;15.82;5.70;;;;;;;;;;5034374;28;20036;-55
2021/03/26 11:02:18;;;;;;;16.75;6.45;;;;;;;;;;5032874;28;20029;-55
2021/03/26 11:04:45;;;;;;;4.22;2.78;;;;;;;;;;5032880;28;20034;-55
2021/03/26 11:07:16;;;;;;;11.25;5.18;;;;;;;;;;5032718;28;20034;-55
2021/03/26 11:09:45;;;;;;;9.18;4.60;;;;;;;;;;5033680;28;20030;-55
2021/03/26 11:12:30;;;;;;;4.47;2.63;;;;;;;;;;5032680;28;20052;-55
2021/03/26 11:15:15;;;;;;;7.28;3.80;;;;;;;;;;5048747;28;20393;-55
2021/03/26 11:17:59;;;;;;;11.35;4.65;;;;;;;;;;5053052;28;20057;-55
2021/03/26 11:20:28;;;;;;;9.80;1.92;;;;;;;;;;5037273;28;20121;-55
2021/03/26 11:23:13;;;;;;;3.72;1.92;;;;;;;;;;5038656;28;20065;-55
2021/03/26 11:25:42;;;;;;;4.10;2.33;;;;;;;;;;5052505;28;20033;-54
2021/03/26 11:28:34;;;;;;;3.00;2.42;;;;;;;;;;5043652;28;20343;-55
2021/03/26 11:31:10;;;;;;;12.45;5.15;;;;;;;;;;5035397;28;20080;-55
2021/03/26 11:33:40;;;;;;;11.77;3.22;;;;;;;;;;5032601;28;20025;-54
2021/03/26 11:36:26;;;;;;;7.97;3.22;;;;;;;;;;5031807;28;20119;-55
2021/03/26 11:38:58;;;;;;;16.92;5.18;;;;;;;;;;5032035;28;20025;-55
2021/03/26 11:41:24;;;;;;;3.95;1.55;;;;;;;;;;5033680;28;20036;-55
2021/03/26 11:43:52;;;;;;;19.45;3.17;;;;;;;;;;5056441;28;20033;-55
2021/03/26 11:46:22;;;;;;;11.70;5.00;;;;;;;;;;5063655;28;20030;-54
2021/03/26 11:48:48;;;;;;;3.65;1.85;;;;;;;;;;5041467;28;20517;-55
2021/03/26 11:51:35;;;;;;;7.25;1.45;;;;;;;;;;5043832;28;20033;-55
2021/03/26 11:54:07;;;;;;;8.75;4.40;;;;;;;;;;5039285;28;20060;-55
2021/03/26 11:56:33;;;;;;;12.55;4.35;;;;;;;;;;5051204;28;20037;-55
2021/03/26 11:59:07;;;;;;;10.77;4.20;;;;;;;;;;5045867;28;20042;-55
2021/03/26 12:01:54;;;;;;;11.55;2.95;;;;;;;;;;5039456;28;20112;-55
2021/03/26 12:04:24;;;;;;;4.35;2.65;;;;;;;;;;5041137;28;20477;-55
2021/03/26 12:07:03;;;;;;;4.60;2.65;;;;;;;;;;5046195;28;20455;-54
2021/03/26 12:09:53;;;;;;;4.82;1.55;;;;;;;;;;5046962;28;20549;-55
2021/03/26 12:12:21;;;;;;;1.48;1.13;;;;;;;;;;5046052;28;20068;-55
2021/03/26 12:14:56;;;;;;;6.95;2.95;;;;;;;;;;5044937;28;20057;-55
2021/03/26 12:17:22;;;;;;;4.95;2.72;;;;;;;;;;5042319;28;20034;-55
2021/03/26 12:19:57;;;;;;;3.28;1.55;;;;;;;;;;5053221;28;20017;-54
2021/03/26 12:22:41;;;;;;;8.10;0.75;;;;;;;;;;5049338;28;20048;-54
2021/03/26 12:25:21;;;;;;;5.57;2.10;;;;;;;;;;5053980;28;20045;-55
2021/03/26 12:27:48;;;;;;;5.80;2.37;;;;;;;;;;5054972;28;20834;-55
2021/03/26 12:30:19;;;;;;;1.88;1.38;;;;;;;;;;5049322;28;20037;-55
2021/03/26 12:32:45;;;;;;;;;;;;;;;;;;5039516;28;20038;-55
2021/03/26 12:35:19;;;;;;;9.52;2.58;;;;;;;;;;5038439;28;19916;-55
2021/03/26 12:37:53;;;;;;;4.07;1.67;;;;;;;;;;5043498;28;20080;-55
2021/03/26 12:40:30;;;;;;;0.73;0.73;;;;;;;;;;5050351;28;20057;-55
2021/03/26 12:43:07;;;;;;;7.07;2.05;;;;;;;;;;5052364;28;20020;-55
2021/03/26 12:45:59;;;;;;;0.50;0.50;;;;;;;;;;5054892;28;20370;-55
2021/03/26 12:48:35;;;;;;;1.80;1.17;;;;;;;;;;5053527;28;20037;-55
2021/03/26 12:51:08;;;;;;;1.77;1.13;;;;;;;;;;5044379;28;20443;-54
2021/03/26 12:53:37;;;;;;;5.93;2.28;;;;;;;;;;5036187;28;20037;-55
2021/03/26 12:56:11;;;;;;;1.05;0.82;;;;;;;;;;5039328;28;20113;-55
2021/03/26 12:58:51;;;;;;;5.97;2.60;;;;;;;;;;5034528;28;20049;-55
2021/03/26 13:01:20;;;;;;;2.13;1.23;;;;;;;;;;5036131;28;20029;-55
2021/03/26 13:03:56;;;;;;;1.27;1.00;;;;;;;;;;5034918;28;20311;-55
2021/03/26 13:06:35;;;;;;;0.75;0.75;;;;;;;;;;5042428;28;20037;-55
2021/03/26 13:09:10;;;;;;;10.48;3.70;;;;;;;;;;5044574;28;20049;-54
2021/03/26 13:11:38;;;;;;;4.93;2.97;;;;;;;;;;5042334;28;20086;-54
2021/03/26 13:14:26;;;;;;;7.93;3.28;;;;;;;;;;5035032;28;20037;-54
2021/03/26 13:16:53;;;;;;;8.55;4.13;;;;;;;;;;5034091;28;20103;-54
2021/03/26 13:19:19;;;;;;;3.67;1.45;;;;;;;;;;5034951;28;20378;-54
2021/03/26 13:22:03;;;;;;;7.57;3.38;;;;;;;;;;5035025;28;20036;-54
2021/03/26 13:24:29;;;;;;;5.70;2.08;;;;;;;;;;5034160;28;20025;-54
2021/03/26 13:27:14;;;;;;;2.83;1.27;;;;;;;;;;5034235;28;20040;-54
2021/03/26 13:29:41;;;;;;;0.93;0.93;;;;;;;;;;5051357;28;20029;-54
2021/03/26 13:32:08;;;;;;;4.80;1.95;;;;;;;;;;5037261;28;20029;-54
2021/03/26 13:34:39;;;;;;;2.83;1.58;;;;;;;;;;5052565;28;20036;-54
2021/03/26 13:37:22;;;;;;;9.38;2.85;;;;;;;;;;5054026;28;20025;-54
2021/03/26 13:39:48;;;;;;;1.00;0.90;;;;;;;;;;5040997;28;20030;-54
2021/03/26 13:42:23;;;;;;;1.38;0.88;;;;;;;;;;5052514;28;20120;-54
2021/03/26 13:44:52;;;;;;;6.75;2.38;;;;;;;;;;5044733;28;20043;-54
2021/03/26 13:47:24;;;;;;;26.88;0.73;;;;;;;;;;5050175;28;20025;-54
2021/03/26 13:49:52;;;;;;;0.38;0.38;;;;;;;;;;5044862;28;20028;-54
2021/03/26 13:52:25;;;;;;;6.97;2.30;;;;;;;;;;5051316;28;20033;-54
2021/03/26 13:54:58;;;;;;;3.00;1.80;;;;;;;;;;5044293;28;20032;-54
2021/03/26 13:57:26;;;;;;;2.17;1.10;;;;;;;;;;5052911;28;20069;-54
2021/03/26 14:00:06;;;;;;;1.48;1.05;;;;;;;;;;5051191;28;20039;-54
2021/03/26 14:02:34;;;;;;;0.40;0.40;;;;;;;;;;5053710;28;20045;-54
2021/03/26 14:05:05;;;;;;;2.83;1.63;;;;;;;;;;5047741;28;20033;-54
2021/03/26 14:07:34;;;;;;;0.88;0.88;;;;;;;;;;5032971;28;20033;-54
2021/03/26 14:10:06;;;;;;;1.60;1.17;;;;;;;;;;5033511;28;20033;-54
2021/03/26 14:12:37;;;;;;;9.07;3.40;;;;;;;;;;5039052;28;20033;-54
2021/03/26 14:15:06;;;;;;;4.68;2.38;;;;;;;;;;5050773;28;20365;-54
2021/03/26 14:17:32;;;;;;;8.80;2.20;;;;;;;;;;5033167;28;20448;-54
2021/03/26 14:20:02;;;;;;;6.55;2.53;;;;;;;;;;5033484;28;20032;-53
2021/03/26 14:22:35;;;;;;;3.35;1.73;;;;;;;;;;5041124;28;20026;-54
2021/03/26 14:25:11;;;;;;;0.75;0.75;;;;;;;;;;5041968;28;20041;-54
2021/03/26 14:27:53;;;;;;;3.17;2.35;;;;;;;;;;5041420;28;20021;-54
2021/03/26 14:30:36;;;;;;;4.28;2.28;;;;;;;;;;5043464;28;20531;-54
2021/03/26 14:33:25;;;;;;;0.95;0.70;;;;;;;;;;5046038;28;20025;-54
2021/03/26 14:35:53;;;;;;;1.20;0.88;;;;;;;;;;5053013;28;20074;-54
2021/03/26 14:38:35;;;;;;;1.10;0.95;;;;;;;;;;5049553;28;20055;-53
2021/03/26 14:41:20;;;;;;;2.05;1.35;;;;;;;;;;5052650;28;20032;-54
2021/03/26 14:43:47;;;;;;;3.60;1.80;;;;;;;;;;5057494;28;20036;-54
2021/03/26 14:46:14;;;;;;;1.60;1.25;;;;;;;;;;5050369;28;20112;-54
2021/03/26 14:48:45;;;;;;;1.35;0.77;;;;;;;;;;5041950;28;20503;-54
2021/03/26 14:51:17;;;;;;;1.55;1.15;;;;;;;;;;5042351;28;20458;-54
2021/03/26 14:53:53;;;;;;;0.77;0.77;;;;;;;;;;5044629;28;20029;-54
2021/03/26 14:56:26;;;;;;;0.60;0.60;;;;;;;;;;5042069;28;20025;-54
2021/03/26 14:58:56;;;;;;;1.23;1.13;;;;;;;;;;5041564;28;20053;-54
2021/03/26 15:01:51;;;;;;;0.93;0.93;;;;;;;;;;5041852;28;20033;-54
2021/03/26 15:04:20;;;;;;;11.20;1.88;;;;;;;;;;5041071;28;20106;-54
2021/03/26 15:06:46;;;;;;;2.08;0.77;;;;;;;;;;5035446;28;20457;-54
2021/03/26 15:09:18;;;;;;;0.95;0.70;;;;;;;;;;5036536;28;20112;-54